»·PEaware :: N331YC KSLC-33U

N331YC :: KSLC-33U

FLIGHT INFORMATION

Flight Status: Arrived
Operator: Privately registered:
United States
More flights under this callsign
Pilot: Sanjiv S. (4490)
Aircraft: BEECH AIRCRAFT A90-E90 KING AIR
(BE9L)
More flights by this aircraft type
Origin: KSLC Salt Lake City Intl
United States
Destination: 33U Dutch John
United States
More flights between these airports :: More routes between these airports
Route: +SLC4 TCH V32 FBR
File this flight plan on PilotEdge
Remarks:
Altitude:
(Current/Filed)
13,000ft
Speed:
(Current/Filed)
200kts
Departed: 17-Dec-17 09:07 AM
Arrived: 17-Dec-17 09:53 AM
Distance/Time
Traveled:
117nm/0:46
Distance/Time
To Go:
Arrived

Flight Plot

Page will automatically refresh every two minutes.

Flight plan parsing failed; only flown route is shown


Map Options




Map Legend


Flown Route
Filed Route
Departure Airport
Arrival Airport
Navaid (VOR, NDB)
Fix

Horizontal Profiles

Position Reports

Time Latitude Longitude Heading Altitude Ground
Speed
17-Dec-17 08:57 40.777178 -111.958928 178 4230ft 0kts
17-Dec-17 08:58 40.777178 -111.958928 178 4230ft 0kts
17-Dec-17 08:59 40.777178 -111.958928 178 4230ft 0kts
17-Dec-17 09:00 40.777178 -111.958928 178 4230ft 0kts
17-Dec-17 09:01 40.777178 -111.958928 178 4230ft 0kts
17-Dec-17 09:02 40.777178 -111.958928 178 4230ft 0kts
17-Dec-17 09:03 40.777178 -111.958928 178 4230ft 0kts
17-Dec-17 09:04 40.777178 -111.958928 178 4230ft 0kts
17-Dec-17 09:05 40.777128 -111.958927 181 4230ft 2kts
17-Dec-17 09:06 40.776493 -111.959887 195 4230ft 6kts
17-Dec-17 09:07 40.774877 -111.960623 182 4230ft 8kts
17-Dec-17 09:08 40.772776 -111.960849 238 4230ft 5kts
17-Dec-17 09:09 40.772745 -111.960943 250 4230ft 0kts
17-Dec-17 09:10 40.772745 -111.960943 250 4230ft 0kts
17-Dec-17 09:11 40.772745 -111.960943 250 4230ft 0kts
17-Dec-17 09:12 40.772733 -111.960985 249 4230ft 3kts
17-Dec-17 09:13 40.779372 -111.962077 358 4230ft 93kts
17-Dec-17 09:14 40.809060 -111.965182 348 5179ft 119kts
17-Dec-17 09:15 40.844317 -111.969725 353 6352ft 129kts
17-Dec-17 09:16 40.880212 -111.974136 353 7432ft 131kts
17-Dec-17 09:17 40.916184 -111.978694 353 8431ft 132kts
17-Dec-17 09:18 40.953211 -111.983201 5 9378ft 134kts
17-Dec-17 09:19 40.959590 -111.939535 100 10232ft 145kts
17-Dec-17 09:20 40.950256 -111.887526 100 11044ft 147kts
17-Dec-17 09:21 40.940632 -111.834415 100 11803ft 149kts
17-Dec-17 09:22 40.930769 -111.780733 100 12510ft 152kts
17-Dec-17 09:23 40.940274 -111.728652 61 12959ft 162kts
17-Dec-17 09:24 40.960910 -111.670400 61 12955ft 184kts
17-Dec-17 09:25 40.980138 -111.606784 73 12955ft 193kts
17-Dec-17 09:26 40.997774 -111.535997 65 12936ft 209kts
17-Dec-17 09:27 41.020980 -111.463929 62 12911ft 217kts
17-Dec-17 09:28 41.046076 -111.390802 61 12885ft 220kts
17-Dec-17 09:29 41.071383 -111.317444 62 12870ft 222kts
17-Dec-17 09:30 41.097141 -111.243068 62 12870ft 223kts
17-Dec-17 09:31 41.122492 -111.171046 62 12872ft 224kts
17-Dec-17 09:32 41.148250 -111.096853 62 12881ft 224kts
17-Dec-17 09:33 41.174352 -111.021399 62 12881ft 225kts
17-Dec-17 09:34 41.200615 -110.945373 63 12881ft 226kts
17-Dec-17 09:35 41.226857 -110.869225 63 12881ft 227kts
17-Dec-17 09:36 41.253059 -110.792972 63 12884ft 227kts
17-Dec-17 09:37 41.279159 -110.716824 63 12887ft 227kts
17-Dec-17 09:38 41.305220 -110.640590 63 12890ft 227kts
17-Dec-17 09:39 41.331543 -110.563375 63 12891ft 227kts
17-Dec-17 09:40 41.357525 -110.486952 63 12891ft 228kts
17-Dec-17 09:41 41.382586 -110.409471 83 12879ft 230kts
17-Dec-17 09:42 41.349869 -110.339690 130 12890ft 228kts
17-Dec-17 09:43 41.307570 -110.277420 132 12889ft 228kts
17-Dec-17 09:44 41.268725 -110.211395 127 12990ft 226kts
17-Dec-17 09:45 41.241525 -110.136011 110 12990ft 229kts
17-Dec-17 09:46 41.219378 -110.056505 110 12990ft 230kts
17-Dec-17 09:47 41.188033 -109.982946 121 12991ft 229kts
17-Dec-17 09:48 41.156075 -109.909483 121 13011ft 228kts
17-Dec-17 09:49 41.124225 -109.836436 121 13010ft 229kts
17-Dec-17 09:50 41.092304 -109.763401 121 13002ft 229kts
17-Dec-17 09:51 41.060487 -109.690789 121 12993ft 227kts
17-Dec-17 09:52 41.028897 -109.618893 121 12544ft 221kts
17-Dec-17 09:53 40.998269 -109.549409 120 11324ft 216kts
17-Dec-17 09:54 40.968465 -109.481947 120 9959ft 203kts
17-Dec-17 09:55 40.940408 -109.420071 108 8459ft 179kts
17-Dec-17 09:56 40.931359 -109.373448 100 7904ft 130kts
17-Dec-17 09:57 40.914370 -109.341030 170 7146ft 109kts
17-Dec-17 09:58 40.901175 -109.365142 311 7137ft 97kts
17-Dec-17 09:59 40.917861 -109.391051 304 6566ft 35kts
17-Dec-17 10:00 40.921284 -109.395873 347 6552ft 0kts

Navigation Log

Ident Type
Flight plan parsing failed, navigation log unavailable